createdAt,value
2023-05-20T00:01:00.207Z,22.80
2023-05-20T00:06:04.589Z,22.60
2023-05-20T00:11:07.454Z,22.70
2023-05-20T00:16:10.380Z,22.70
2023-05-20T00:21:14.574Z,22.70
2023-05-20T00:26:17.771Z,22.70
2023-05-20T00:31:21.791Z,22.70
2023-05-20T00:36:26.195Z,22.60
2023-05-20T00:41:29.042Z,22.70
2023-05-20T00:46:32.077Z,22.60
2023-05-20T00:51:36.440Z,22.60
2023-05-20T00:56:39.443Z,22.60
2023-05-20T01:01:42.844Z,22.70
2023-05-20T01:06:47.911Z,22.60
2023-05-20T01:11:54.727Z,22.60
2023-05-20T01:17:00.045Z,22.60
2023-05-20T01:22:07.124Z,22.60
2023-05-20T01:27:13.503Z,22.60
2023-05-20T01:32:20.070Z,22.60
2023-05-20T01:37:23.600Z,22.60
2023-05-20T01:42:28.241Z,22.70
2023-05-20T01:47:32.896Z,22.50
2023-05-20T01:52:36.401Z,22.60
2023-05-20T01:57:40.718Z,22.60
2023-05-20T02:02:43.726Z,22.60
2023-05-20T02:07:46.676Z,22.50
2023-05-20T02:12:50.948Z,22.50
2023-05-20T02:17:53.963Z,22.50
2023-05-20T02:22:56.898Z,22.50
2023-05-20T02:28:01.137Z,22.60
2023-05-20T02:33:04.508Z,22.50
2023-05-20T02:38:07.410Z,22.50
2023-05-20T02:43:11.701Z,22.50
2023-05-20T02:48:14.573Z,22.50
2023-05-20T02:53:17.523Z,22.40
2023-05-20T02:58:27.027Z,22.60
2023-05-20T03:03:29.968Z,22.50
2023-05-20T03:08:34.126Z,22.50
2023-05-20T03:13:38.343Z,22.50
2023-05-20T03:18:41.928Z,22.50
2023-05-20T03:23:44.890Z,22.50
2023-05-20T03:28:49.222Z,22.50
2023-05-20T03:33:52.413Z,22.50
2023-05-20T03:38:55.384Z,22.50
2023-05-20T03:43:59.716Z,22.40
2023-05-20T03:49:03.045Z,22.50
2023-05-20T03:54:05.929Z,22.50
2023-05-20T03:59:10.402Z,22.40
2023-05-20T04:04:13.988Z,22.40
2023-05-20T04:09:17.012Z,22.40
2023-05-20T04:14:21.251Z,22.40
2023-05-20T04:19:28.409Z,22.40
2023-05-20T04:24:31.448Z,22.40
2023-05-20T04:29:35.680Z,22.40
2023-05-20T04:34:38.976Z,22.40
2023-05-20T04:39:43.647Z,22.40
2023-05-20T04:44:48.053Z,22.40
2023-05-20T04:49:51.318Z,22.40
2023-05-20T04:54:58.153Z,22.40
2023-05-20T05:00:02.775Z,22.40
2023-05-20T05:05:08.105Z,22.40
2023-05-20T05:10:12.203Z,22.40
2023-05-20T05:15:16.456Z,22.40
2023-05-20T05:20:19.516Z,22.40
2023-05-20T05:25:22.774Z,22.40
2023-05-20T05:30:27.124Z,22.50
2023-05-20T05:35:30.009Z,22.50
2023-05-20T05:40:33.092Z,22.50
2023-05-20T05:45:37.340Z,22.60
2023-05-20T05:50:40.301Z,22.60
2023-05-20T05:55:43.176Z,22.60
2023-05-20T06:00:47.363Z,22.60
2023-05-20T06:05:50.222Z,22.60
2023-05-20T06:10:53.485Z,22.60
2023-05-20T06:15:57.852Z,22.60
2023-05-20T06:21:00.923Z,22.60
2023-05-20T06:26:03.836Z,22.70
2023-05-20T06:31:08.348Z,22.70
2023-05-20T06:36:11.483Z,22.70
2023-05-20T06:41:14.567Z,22.70
2023-05-20T06:46:18.790Z,22.70
2023-05-20T06:51:21.720Z,22.70
2023-05-20T06:56:24.598Z,22.70
2023-05-20T07:01:31.067Z,22.70
2023-05-20T07:06:33.948Z,22.80
2023-05-20T07:11:36.812Z,22.80
2023-05-20T07:16:41.107Z,22.70
2023-05-20T07:21:44.112Z,22.80
2023-05-20T07:26:47.041Z,22.90
2023-05-20T07:31:51.303Z,22.80
2023-05-20T07:36:54.323Z,22.80
2023-05-20T07:41:57.216Z,22.90
2023-05-20T07:47:01.510Z,22.80
2023-05-20T07:52:04.543Z,22.70
2023-05-20T07:57:07.591Z,22.80
2023-05-20T08:02:11.918Z,22.90
2023-05-20T08:07:14.805Z,22.80
2023-05-20T08:12:17.677Z,22.90
2023-05-20T08:17:21.949Z,22.90
2023-05-20T08:22:24.904Z,22.90
2023-05-20T08:27:27.938Z,22.90
2023-05-20T08:32:33.160Z,22.90
2023-05-20T08:37:36.214Z,22.90
2023-05-20T08:42:42.369Z,23.00
2023-05-20T08:47:46.987Z,22.90
2023-05-20T08:52:49.995Z,23.00
2023-05-20T08:57:54.468Z,23.10
2023-05-20T09:03:01.394Z,23.10
2023-05-20T09:08:08.107Z,23.20
2023-05-20T09:13:11.676Z,23.10
2023-05-20T09:18:16.137Z,23.10
2023-05-20T09:23:20.609Z,23.20
2023-05-20T09:28:25.376Z,23.20
2023-05-20T09:33:31.980Z,23.20
2023-05-20T09:38:39.039Z,23.20
2023-05-20T09:43:42.441Z,23.20
2023-05-20T09:48:46.855Z,23.20
2023-05-20T09:53:49.727Z,23.20
2023-05-20T09:58:58.237Z,23.20
2023-05-20T10:04:03.062Z,23.10
2023-05-20T10:09:33.800Z,23.20
2023-05-20T10:14:45.067Z,23.20
2023-05-20T10:19:50.570Z,23.30
2023-05-20T10:24:59.845Z,23.20
2023-05-20T10:30:03.773Z,23.30
2023-05-20T10:35:10.458Z,23.30
2023-05-20T10:40:15.172Z,23.40
2023-05-20T10:45:28.561Z,23.40
2023-05-20T10:50:37.666Z,23.40
2023-05-20T10:55:41.735Z,23.40
2023-05-20T11:00:44.806Z,23.40
2023-05-20T11:05:49.218Z,23.50
2023-05-20T11:10:52.964Z,23.50
2023-05-20T11:15:56.070Z,23.50
2023-05-20T11:21:00.912Z,23.60
2023-05-20T11:26:03.832Z,23.60
2023-05-20T11:31:07.326Z,23.50
2023-05-20T11:36:23.820Z,23.50
2023-05-20T11:41:30.690Z,23.60
2023-05-20T11:46:33.637Z,23.60
2023-05-20T11:51:38.937Z,23.60
2023-05-20T11:56:42.433Z,23.70
2023-05-20T12:01:45.661Z,23.60
2023-05-20T12:06:50.002Z,23.60
2023-05-20T12:11:52.911Z,23.60
2023-05-20T12:16:56.554Z,23.70
2023-05-20T12:22:00.863Z,23.60
2023-05-20T12:27:04.110Z,23.70
2023-05-20T12:32:07.615Z,23.70
2023-05-20T12:37:11.995Z,23.70
2023-05-20T12:42:14.878Z,23.70
2023-05-20T12:47:17.818Z,23.70
2023-05-20T12:52:22.977Z,23.70
2023-05-20T12:57:26.221Z,23.80
2023-05-20T13:02:29.263Z,23.80
2023-05-20T13:07:33.915Z,23.70
2023-05-20T13:12:36.853Z,23.70
2023-05-20T13:17:39.699Z,23.60
2023-05-20T13:22:43.988Z,23.60
2023-05-20T13:27:47.196Z,23.50
2023-05-20T13:32:50.144Z,23.60
2023-05-20T13:37:54.373Z,23.60
2023-05-20T13:42:57.352Z,23.60
2023-05-20T13:48:00.455Z,23.70
2023-05-20T13:53:04.681Z,23.70
2023-05-20T13:58:09.078Z,23.60
2023-05-20T14:03:12.023Z,23.60
2023-05-20T14:08:16.307Z,23.40
2023-05-20T14:13:19.184Z,23.60
2023-05-20T14:18:22.376Z,23.60
2023-05-20T14:23:26.607Z,23.50
2023-05-20T14:28:29.500Z,23.50
2023-05-20T14:33:32.818Z,23.60
2023-05-20T14:38:37.004Z,23.50
2023-05-20T14:43:39.825Z,23.50
2023-05-20T14:48:42.792Z,23.50
2023-05-20T14:53:47.087Z,23.40
2023-05-20T14:58:49.981Z,23.50
2023-05-20T15:03:52.847Z,23.40
2023-05-20T15:08:57.225Z,23.50
2023-05-20T15:14:00.530Z,23.50
2023-05-20T15:19:03.410Z,23.40
2023-05-20T15:24:07.620Z,23.40
2023-05-20T15:29:10.594Z,23.40
2023-05-20T15:34:13.585Z,23.30
2023-05-20T15:39:17.825Z,23.40
2023-05-20T15:44:20.754Z,23.40
2023-05-20T15:49:25.225Z,23.40
2023-05-20T15:54:29.543Z,23.40
2023-05-20T15:59:32.464Z,23.30
2023-05-20T16:04:35.659Z,23.30
2023-05-20T16:09:39.884Z,23.30
2023-05-20T16:14:43.582Z,23.30
2023-05-20T16:19:46.639Z,23.30
2023-05-20T16:24:52.041Z,23.20
2023-05-20T16:29:54.995Z,23.20
2023-05-20T16:34:57.906Z,23.30
2023-05-20T16:40:02.120Z,23.30
2023-05-20T16:45:05.876Z,23.30
2023-05-20T16:50:10.328Z,23.30
2023-05-20T16:55:14.537Z,23.30
2023-05-20T17:00:18.505Z,23.30
2023-05-20T17:05:21.412Z,23.40
2023-05-20T17:10:25.764Z,23.50
2023-05-20T17:15:28.632Z,23.40
2023-05-20T17:20:31.645Z,23.40
2023-05-20T17:25:35.993Z,23.30
2023-05-20T17:30:38.828Z,23.40
2023-05-20T17:35:42.150Z,23.30
2023-05-20T17:40:46.391Z,23.30
2023-05-20T17:45:50.208Z,23.30
2023-05-20T17:50:53.892Z,23.20
2023-05-20T17:55:58.381Z,23.30
2023-05-20T18:01:01.437Z,23.20
2023-05-20T18:06:06.008Z,23.20
2023-05-20T18:11:10.390Z,23.20
2023-05-20T18:16:13.469Z,23.20
2023-05-20T18:21:17.936Z,23.20
2023-05-20T18:26:22.696Z,23.20
2023-05-20T18:31:26.355Z,23.10
2023-05-20T18:36:30.294Z,23.00
2023-05-20T18:41:45.933Z,23.10
2023-05-20T18:46:49.310Z,23.10
2023-05-20T18:51:52.432Z,23.10
2023-05-20T18:56:56.685Z,23.00
2023-05-20T19:01:59.856Z,23.00
2023-05-20T19:07:02.747Z,23.00
2023-05-20T19:12:07.845Z,23.00
2023-05-20T19:17:10.814Z,23.10
2023-05-20T19:22:13.663Z,22.90
2023-05-20T19:27:17.866Z,22.90
2023-05-20T19:32:20.948Z,23.00
2023-05-20T19:37:23.909Z,22.90
2023-05-20T19:42:28.184Z,23.00
2023-05-20T19:47:31.420Z,22.90
2023-05-20T19:52:34.367Z,22.90
2023-05-20T19:57:38.797Z,23.00
2023-05-20T20:02:41.723Z,22.90
2023-05-20T20:07:44.619Z,22.80
2023-05-20T20:12:49.799Z,22.90
2023-05-20T20:17:52.829Z,23.00
2023-05-20T20:22:56.391Z,22.90
2023-05-20T20:28:00.648Z,22.90
2023-05-20T20:33:06.279Z,22.80
2023-05-20T20:38:09.949Z,22.80
2023-05-20T20:43:20.455Z,22.80
2023-05-20T20:48:26.910Z,22.80
2023-05-20T20:53:30.054Z,22.80
2023-05-20T20:58:34.795Z,22.80
2023-05-20T21:03:40.166Z,22.80
2023-05-20T21:08:43.405Z,22.80
2023-05-20T21:13:47.572Z,22.90
2023-05-20T21:18:50.466Z,22.80
2023-05-20T21:23:54.243Z,22.80
2023-05-20T21:28:58.454Z,22.80
2023-05-20T21:34:01.317Z,22.80
2023-05-20T21:39:04.526Z,22.70
2023-05-20T21:44:08.959Z,22.70
2023-05-20T21:49:11.809Z,22.70
2023-05-20T21:54:14.685Z,22.70
2023-05-20T21:59:19.692Z,22.70
2023-05-20T22:04:23.139Z,22.70
2023-05-20T22:09:26.016Z,22.70
2023-05-20T22:14:30.776Z,22.70
2023-05-20T22:19:34.150Z,22.70
2023-05-20T22:24:37.098Z,22.80
2023-05-20T22:29:41.279Z,22.70
2023-05-20T22:34:45.278Z,22.70
2023-05-20T22:39:48.202Z,22.70
2023-05-20T22:44:52.455Z,22.70
2023-05-20T22:49:55.368Z,22.60
2023-05-20T22:54:58.654Z,22.70
2023-05-20T23:00:02.846Z,22.70
2023-05-20T23:05:06.253Z,22.70
2023-05-20T23:10:09.616Z,22.60
2023-05-20T23:15:13.914Z,22.60
2023-05-20T23:20:19.000Z,22.60
2023-05-20T23:25:21.944Z,22.60
2023-05-20T23:30:27.001Z,22.60
2023-05-20T23:35:29.938Z,22.60
2023-05-20T23:40:32.845Z,22.60
2023-05-20T23:45:37.162Z,22.70
2023-05-20T23:50:40.496Z,22.50
2023-05-20T23:55:45.095Z,22.60
